Airfield :







YOU CAN JOIN US ON...

 
LOGIN :

Register | Disclaimer

   EN    FR    IT 

 









Legend :    VFR   Marginal VFR   IFR   Intensive IFR   Very Intensive IFR
Visi :
Ceiling :
>= 8 km
>= 3000ft
5 to 8 km
1000 to 3000 ft
1500m to 5 km
500 to 1000 ft
800 to 1500m
200 to 500 ft
< 800m
< 200 ft
Symbols :   Thunderstorms  Fog  Heavy snow  Heavy precipitations  Wind > 20 kt






- Airport Elevation : 13 ft
- IATA code : SXM


TNCM - Princess Juliana Int.

CURRENT METAR :
  • 232200Z 08006KT 050V110 9999 FEW018 28/24 Q1013 NOSIG RMK CB TOP SE THRU NW

EXPIRED METARs :
  • 232100Z 09007KT 9999 FEW012CB FEW018 29/24 1012 NOSIG RMK CB SE/ S/W/CB TOP SE THRU SW
  • 232000Z 09007KT 050V120 9999 FEW018 30/24 Q1012 A2990 NOSIG RMK CB TOP SE THRU W

TAF TNCM
Valid from the 23 at 18:00 until the 24 at 18:00 UTC


231720Z 2318/2418 11008KT P6SM VCSH SCT020
FM232300 08007KT P6SM VCSH SCT018



MET'MAP, your aeronautical weather chart ! - Copyright ORBIFLY December 2007 - Disclaimer

ORBIFLY MET'MAP TEAM :

Programming & Development : Alexandra Zaïnal
Concept & Development : Baudouin d'Aumeries
Co-Development & Prog : Marc-Olivier Méhu
Technical & hardware support : Manuel Goepfert

Contact : metmap@orbifly.com




SOURCES & CREDITS :

   NOAA